DTKA/TBJ METAR and TAF weather

Enter ICAO airport designator
Station Type Date Time Source
DTKA METAR 2019/12/16 03:00 UTC NOAA

DTKA 160300Z 08007KT 9999 FEW020 10/10 Q1016 NOSIG


Station Type Date Time Source
DTKA Decoded METAR 2019/12/16 03:00 UTC NOAA

Tabarka, Tunisia (DTKA) 36-57N 008-45E 21M
Dec 15, 2019 - 10:00 PM EST / 2019.12.16 0300 UTC
Wind: from the E (080 degrees) at 8 MPH (7 KT):0
Visibility: greater than 7 mile(s):0
Sky conditions: mostly clear
Temperature: 50 F (10 C)
Dew Point: 50 F (10 C)
Relative Humidity: 100%
Pressure (altimeter): 30.00 in. Hg (1016 hPa)
ob: DTKA 160300Z 08007KT 9999 FEW020 10/10 Q1016 NOSIG
cycle: 3

Station Type Date Time Source
DTKA TAF 2018/07/22 13:33 UTC NOAA

TAF TAF DTKA 221200Z 2213/2322 23005KT 9999 FEW020 PROB30
TEMPO 2217/2222 4000 -TSRA FEW026CB

Example: see airport list